Time;durP1;ratioP1;P1;durP2;ratioP2;P2;SDS_P1;SDS_P2;PMS_P1;PMS_P2;Temp;Humidity;BMP_temperature;BMP_pressure;BME280_temperature;BME280_humidity;BME280_pressure;Samples;Min_cycle;Max_cycle;Signal;HPM_P1;HPM_P2
2021/09/28 00:00:02;;;;;;;9.35;3.15;;;;;;;12.05;100.00;102038.03;10500661;28;20056;-60
2021/09/28 00:05:05;;;;;;;17.15;4.10;;;;;;;12.07;100.00;102036.19;10501981;28;20040;-60
2021/09/28 00:10:08;;;;;;;7.07;2.72;;;;;;;12.13;100.00;102031.59;10499388;28;20040;-60
2021/09/28 00:15:11;;;;;;;12.40;2.80;;;;;;;12.14;100.00;102038.53;10501637;28;20051;-59
2021/09/28 00:20:14;;;;;;;11.20;2.92;;;;;;;12.02;100.00;102037.31;10500059;28;20049;-60
2021/09/28 00:25:17;;;;;;;7.40;2.25;;;;;;;12.24;100.00;102040.69;10501458;28;20044;-59
2021/09/28 00:30:19;;;;;;;7.90;3.20;;;;;;;11.91;100.00;102045.66;10500444;28;20044;-59
2021/09/28 00:35:21;;;;;;;14.27;2.88;;;;;;;11.99;100.00;102047.97;10500908;28;20056;-60
2021/09/28 00:40:23;;;;;;;12.02;2.85;;;;;;;12.04;100.00;102048.63;10500306;28;20049;-60
2021/09/28 00:45:26;;;;;;;8.18;2.78;;;;;;;11.91;100.00;102050.91;10499751;28;20044;-59
2021/09/28 00:50:28;;;;;;;16.98;3.70;;;;;;;11.92;100.00;102054.38;10499794;28;20056;-59
2021/09/28 00:55:31;;;;;;;9.55;3.38;;;;;;;11.68;100.00;102052.72;10498945;28;20045;-59
2021/09/28 01:00:33;;;;;;;8.18;2.80;;;;;;;12.16;100.00;102057.72;10498111;28;20420;-59
2021/09/28 01:05:36;;;;;;;7.38;2.45;;;;;;;11.88;100.00;102074.63;10499362;28;20518;-59
2021/09/28 01:10:38;;;;;;;9.38;2.72;;;;;;;11.89;100.00;102058.81;10498632;28;20052;-59
2021/09/28 01:15:58;;;;;;;8.95;3.20;;;;;;;11.64;100.00;102066.00;10498095;28;20049;-59
2021/09/28 01:21:02;;;;;;;9.38;2.75;;;;;;;11.85;100.00;102073.00;10498373;28;20496;-59
2021/09/28 01:26:04;;;;;;;10.40;3.25;;;;;;;11.87;100.00;102071.16;10497782;28;20040;-59
2021/09/28 01:31:07;;;;;;;9.60;3.05;;;;;;;11.77;100.00;102066.34;10498118;28;20412;-59
2021/09/28 01:36:09;;;;;;;11.77;3.90;;;;;;;11.77;100.00;102066.34;10498838;28;20045;-59
2021/09/28 01:41:12;;;;;;;9.55;2.25;;;;;;;11.83;100.00;102066.94;10496933;28;20055;-60
2021/09/28 01:46:14;;;;;;;8.50;2.70;;;;;;;11.67;100.00;102063.28;10498348;28;20055;-59
2021/09/28 01:51:17;;;;;;;16.42;4.00;;;;;;;11.64;100.00;102072.09;10497855;28;20044;-59
2021/09/28 01:56:26;;;;;;;14.75;3.75;;;;;;;11.44;100.00;102074.69;10498291;28;20396;-60
2021/09/28 02:01:29;;;;;;;13.43;5.03;;;;;;;11.49;100.00;102073.59;10497833;28;20048;-60
2021/09/28 02:06:39;;;;;;;9.07;4.05;;;;;;;11.49;100.00;102075.38;10497931;28;20150;-59
2021/09/28 02:11:42;;;;;;;16.75;3.85;;;;;;;11.38;100.00;102075.81;10497936;28;20051;-60
2021/09/28 02:16:45;;;;;;;12.18;3.42;;;;;;;11.51;100.00;102077.00;10497685;28;20049;-59
2021/09/28 02:21:47;;;;;;;13.48;3.75;;;;;;;11.38;100.00;102074.94;10497530;28;20045;-60
2021/09/28 02:26:50;;;;;;;13.38;3.30;;;;;;;11.40;100.00;102083.59;10497443;28;20408;-59
2021/09/28 02:31:52;;;;;;;11.38;2.67;;;;;;;11.65;100.00;102086.06;10497488;28;20063;-60
2021/09/28 02:36:54;;;;;;;13.30;3.15;;;;;;;11.58;100.00;102089.88;10504456;28;20051;-60
2021/09/28 02:41:57;;;;;;;11.63;3.58;;;;;;;11.30;100.00;102077.88;10505287;28;20048;-59
2021/09/28 02:46:59;;;;;;;12.43;3.08;;;;;;;11.36;100.00;102084.63;10504727;28;20044;-59
2021/09/28 02:52:02;;;;;;;11.55;3.65;;;;;;;11.42;100.00;102081.78;10504283;28;20049;-59
2021/09/28 02:57:04;;;;;;;14.32;4.43;;;;;;;11.28;100.00;102092.81;10504559;28;20052;-59
2021/09/28 03:02:07;;;;;;;13.85;3.08;;;;;;;11.33;100.00;102089.09;10504020;28;20056;-59
2021/09/28 03:07:09;;;;;;;8.77;3.47;;;;;;;11.21;100.00;102093.97;10504614;28;20127;-59
2021/09/28 03:12:12;;;;;;;13.48;3.10;;;;;;;11.32;100.00;102090.00;10503889;28;20064;-59
2021/09/28 03:17:14;;;;;;;22.15;4.32;;;;;;;11.14;100.00;102101.22;10503855;28;20053;-59
2021/09/28 03:22:17;;;;;;;10.10;3.85;;;;;;;11.19;100.00;102093.19;10503696;28;20075;-59
2021/09/28 03:27:19;;;;;;;13.18;3.05;;;;;;;11.10;100.00;102105.72;10503345;28;20052;-59
2021/09/28 03:32:22;;;;;;;9.52;2.78;;;;;;;11.26;100.00;102100.75;10503007;28;20049;-60
2021/09/28 03:37:24;;;;;;;11.13;2.63;;;;;;;11.04;100.00;102107.72;10502831;28;20060;-59
2021/09/28 03:42:27;;;;;;;10.65;2.63;;;;;;;11.24;100.00;102101.72;10502887;28;20072;-60
2021/09/28 03:47:29;;;;;;;14.23;2.60;;;;;;;11.10;100.00;102110.13;10501563;28;20508;-59
2021/09/28 03:52:32;;;;;;;12.75;3.60;;;;;;;11.15;100.00;102097.69;10502356;28;20052;-60
2021/09/28 03:57:34;;;;;;;10.68;3.85;;;;;;;11.18;100.00;102108.06;10502294;28;20044;-59
2021/09/28 04:02:36;;;;;;;11.10;2.72;;;;;;;10.94;100.00;102109.84;10501945;28;20052;-59
2021/09/28 04:07:39;;;;;;;15.77;4.75;;;;;;;10.85;100.00;102125.94;10501856;28;20135;-59
2021/09/28 04:12:41;;;;;;;15.38;3.80;;;;;;;11.06;100.00;102124.25;10501554;28;20060;-60
2021/09/28 04:17:43;;;;;;;15.52;2.88;;;;;;;11.00;100.00;102133.22;10501422;28;20055;-60
2021/09/28 04:22:46;;;;;;;15.40;2.90;;;;;;;10.99;100.00;102136.72;10501290;28;20048;-59
2021/09/28 04:27:48;;;;;;;10.93;3.08;;;;;;;10.86;100.00;102138.97;10500700;28;20044;-61
2021/09/28 04:32:51;;;;;;;7.32;2.75;;;;;;;10.91;100.00;102139.66;10500841;28;20064;-59
2021/09/28 04:37:54;;;;;;;18.70;3.22;;;;;;;10.81;100.00;102138.28;10500495;28;20421;-59
2021/09/28 04:42:56;;;;;;;13.38;3.03;;;;;;;10.78;100.00;102141.84;10500443;28;20420;-60
2021/09/28 04:47:59;;;;;;;7.10;2.42;;;;;;;10.88;100.00;102138.91;10499956;28;20401;-59
2021/09/28 04:53:01;;;;;;;8.65;3.22;;;;;;;10.78;100.00;102151.50;10500197;28;20047;-59
2021/09/28 04:58:03;;;;;;;13.32;2.80;;;;;;;10.82;100.00;102145.22;10499148;28;20048;-60
2021/09/28 05:03:05;;;;;;;10.05;2.75;;;;;;;10.90;100.00;102153.66;10499546;28;20369;-59
2021/09/28 05:08:08;;;;;;;7.18;2.97;;;;;;;10.70;100.00;102153.53;10499054;28;20534;-59
2021/09/28 05:13:10;;;;;;;12.40;3.30;;;;;;;10.83;100.00;102162.66;10499128;28;20428;-59
2021/09/28 05:18:13;;;;;;;9.90;2.15;;;;;;;10.80;100.00;102154.06;10499610;28;20049;-59
2021/09/28 05:23:15;;;;;;;17.73;3.75;;;;;;;10.77;100.00;102166.34;10498801;28;20049;-59
2021/09/28 05:28:17;;;;;;;7.82;2.55;;;;;;;10.72;100.00;102173.50;10498625;28;20070;-60
2021/09/28 05:33:21;;;;;;;11.45;2.53;;;;;;;10.64;100.00;102165.09;10498579;28;20493;-59
2021/09/28 05:38:24;;;;;;;12.82;3.10;;;;;;;10.88;100.00;102175.59;10498464;28;20045;-59
2021/09/28 05:43:27;;;;;;;11.40;2.35;;;;;;;10.90;100.00;102173.78;10498661;28;20045;-59
2021/09/28 05:48:29;;;;;;;16.30;2.60;;;;;;;10.98;100.00;102166.47;10498127;28;20056;-60
2021/09/28 05:53:36;;;;;;;7.32;2.90;;;;;;;11.01;100.00;102168.13;10498877;28;20048;-59
2021/09/28 05:58:38;;;;;;;11.23;2.58;;;;;;;11.00;100.00;102182.16;10497634;28;20412;-60
2021/09/28 06:03:40;;;;;;;9.73;3.15;;;;;;;10.93;100.00;102186.75;10497697;28;20054;-59
2021/09/28 06:08:43;;;;;;;10.15;2.53;;;;;;;10.94;100.00;102178.84;10499795;28;20405;-59
2021/09/28 06:13:45;;;;;;;13.15;2.85;;;;;;;10.80;100.00;102188.97;10506237;28;20497;-59
2021/09/28 06:18:48;;;;;;;10.80;3.13;;;;;;;11.15;100.00;102187.66;10506069;28;20051;-59
2021/09/28 06:23:52;;;;;;;6.78;2.75;;;;;;;11.14;100.00;102191.19;10506185;28;20045;-59
2021/09/28 06:28:55;;;;;;;9.70;3.17;;;;;;;11.07;100.00;102197.56;10505876;28;20233;-59
2021/09/28 06:33:57;;;;;;;10.63;2.67;;;;;;;11.30;100.00;102195.88;10505866;28;20060;-60
2021/09/28 06:38:59;;;;;;;12.60;3.60;;;;;;;11.09;100.00;102201.00;10505222;28;20055;-60
2021/09/28 06:44:03;;;;;;;9.05;3.15;;;;;;;11.65;100.00;102197.13;10503829;28;20051;-60
2021/09/28 06:49:05;;;;;;;15.13;5.00;;;;;;;11.56;100.00;102207.13;10504868;28;20052;-60
2021/09/28 06:54:07;;;;;;;7.82;3.20;;;;;;;11.87;100.00;102202.34;10505140;28;20048;-60
2021/09/28 06:59:10;;;;;;;7.93;3.65;;;;;;;11.80;100.00;102211.41;10504237;28;20097;-59
2021/09/28 07:04:13;;;;;;;7.60;2.38;;;;;;;12.10;100.00;102213.72;10504909;28;20083;-60
2021/09/28 07:09:15;;;;;;;10.50;2.72;;;;;;;12.02;100.00;102211.41;10504377;28;20052;-60
2021/09/28 07:14:17;;;;;;;13.18;3.53;;;;;;;11.97;100.00;102218.63;10503988;28;20051;-60
2021/09/28 07:19:20;;;;;;;11.65;3.10;;;;;;;12.26;100.00;102221.81;10503579;28;20052;-59
2021/09/28 07:24:22;;;;;;;11.05;2.72;;;;;;;12.71;100.00;102218.16;10504120;28;20052;-59
2021/09/28 07:29:24;;;;;;;8.95;2.72;;;;;;;12.85;100.00;102235.09;10503384;28;20468;-60
2021/09/28 07:34:27;;;;;;;10.32;3.25;;;;;;;13.55;97.38;102221.38;10504015;28;20092;-59
2021/09/28 07:39:29;;;;;;;9.88;3.35;;;;;;;13.78;95.48;102226.47;10502857;28;20044;-60
2021/09/28 07:44:32;;;;;;;14.07;3.03;;;;;;;14.18;91.76;102224.50;10501910;28;20056;-60
2021/09/28 07:49:36;;;;;;;11.27;3.58;;;;;;;14.55;90.10;102231.41;10502267;28;20088;-60
2021/09/28 07:54:40;;;;;;;6.60;2.72;;;;;;;15.07;90.42;102234.91;10502836;28;20041;-59
2021/09/28 07:59:42;;;;;;;14.05;3.28;;;;;;;14.43;91.88;102237.31;10502088;28;20049;-60
2021/09/28 08:04:45;;;;;;;10.13;3.08;;;;;;;15.39;88.68;102243.72;10501830;28;20051;-60
2021/09/28 08:09:47;;;;;;;7.22;2.95;;;;;;;15.70;88.04;102234.09;10501693;28;20049;-60
2021/09/28 08:14:49;;;;;;;9.10;3.08;;;;;;;16.29;81.90;102240.41;10501533;28;20047;-60
2021/09/28 08:19:52;;;;;;;9.23;2.88;;;;;;;16.51;81.69;102241.78;10500909;28;20507;-59
2021/09/28 08:25:02;;;;;;;18.63;3.55;;;;;;;17.11;78.25;102239.97;10501149;28;20048;-60
2021/09/28 08:30:07;;;;;;;9.70;2.78;;;;;;;17.79;78.88;102232.06;10501006;28;20051;-60
2021/09/28 08:35:09;;;;;;;9.18;2.63;;;;;;;17.28;79.13;102231.81;10500771;28;20049;-60
2021/09/28 08:40:16;;;;;;;11.45;3.00;;;;;;;17.24;79.76;102238.25;10499970;28;20360;-60
2021/09/28 08:45:18;;;;;;;11.20;3.10;;;;;;;17.69;78.54;102235.44;10500595;28;20047;-60
2021/09/28 08:50:22;;;;;;;18.02;4.75;;;;;;;17.95;76.82;102228.44;10499615;28;20049;-60
2021/09/28 08:55:24;;;;;;;14.88;3.50;;;;;;;18.31;75.37;102233.09;10500334;28;20052;-60
2021/09/28 09:00:26;;;;;;;11.68;2.63;;;;;;;19.21;72.03;102235.75;10499697;28;20052;-60
2021/09/28 09:05:29;;;;;;;9.20;3.17;;;;;;;19.98;69.30;102237.31;10499912;28;20045;-60
2021/09/28 09:10:36;;;;;;;10.05;2.85;;;;;;;19.65;72.29;102234.34;10499115;28;20055;-60
2021/09/28 09:15:38;;;;;;;10.77;3.40;;;;;;;17.71;72.13;102225.56;10498042;28;20503;-59
2021/09/28 09:20:43;;;;;;;11.23;3.50;;;;;;;19.34;72.45;102230.41;10498757;28;20052;-59
2021/09/28 09:25:46;;;;;;;10.43;2.75;;;;;;;20.18;69.99;102223.34;10498732;28;20055;-60
2021/09/28 09:30:49;;;;;;;12.52;3.38;;;;;;;20.45;64.51;102208.91;10498206;28;20048;-60
2021/09/28 09:35:58;;;;;;;8.65;2.95;;;;;;;20.17;64.21;102212.84;10498607;28;20060;-60
2021/09/28 09:41:04;;;;;;;14.45;3.47;;;;;;;22.42;61.08;102208.16;10496119;28;20407;-60
2021/09/28 09:46:20;;;;;;;12.80;3.25;;;;;;;22.23;61.19;102208.84;10498477;28;20112;-60
2021/09/28 09:51:22;;;;;;;9.55;2.55;;;;;;;21.73;58.65;102204.13;10498280;28;20546;-60
2021/09/28 09:56:51;;;;;;;10.93;2.90;;;;;;;21.65;56.55;102193.25;10498074;28;20075;-60
2021/09/28 10:01:54;;;;;;;9.68;3.15;;;;;;;21.87;57.78;102197.63;10493486;28;20045;-60
2021/09/28 10:07:01;;;;;;;10.95;2.00;;;;;;;22.88;58.61;102192.63;10497940;28;20049;-60
2021/09/28 10:12:05;;;;;;;7.35;2.42;;;;;;;23.59;56.30;102184.53;10498234;28;20053;-60
2021/09/28 10:17:30;;;;;;;12.35;3.20;;;;;;;22.81;57.09;102185.19;10497949;28;20055;-60
2021/09/28 10:22:41;;;;;;;10.00;2.67;;;;;;;22.51;55.53;102186.03;10498261;28;20045;-60
2021/09/28 10:27:43;;;;;;;12.50;2.80;;;;;;;23.64;55.27;102181.44;10497403;28;20396;-60
2021/09/28 10:32:46;;;;;;;11.07;2.90;;;;;;;23.62;49.80;102175.34;10497500;28;20071;-60
2021/09/28 10:37:51;;;;;;;5.72;2.65;;;;;;;22.36;53.30;102173.97;10497290;28;20045;-60
2021/09/28 10:42:55;;;;;;;10.45;2.25;;;;;;;21.21;59.38;102161.25;10497193;28;20059;-60
2021/09/28 10:48:03;;;;;;;11.15;2.65;;;;;;;22.19;54.59;102159.41;10495790;28;20127;-60
2021/09/28 10:53:09;;;;;;;9.45;2.92;;;;;;;23.60;55.46;102153.28;10497151;28;20051;-60
2021/09/28 10:58:14;;;;;;;10.07;2.90;;;;;;;23.69;50.28;102142.59;10503968;28;20045;-59
2021/09/28 11:03:18;;;;;;;12.90;2.47;;;;;;;22.67;52.23;102134.81;10504281;28;20412;-59
2021/09/28 11:08:22;;;;;;;9.75;1.80;;;;;;;22.15;54.62;102134.81;10503064;28;20459;-59
2021/09/28 11:13:33;;;;;;;10.32;2.13;;;;;;;22.24;53.89;102135.84;10504276;28;20066;-60
2021/09/28 11:18:38;;;;;;;7.65;1.95;;;;;;;23.10;50.52;102123.00;10504555;28;20048;-60
2021/09/28 11:23:42;;;;;;;13.60;2.10;;;;;;;21.98;52.94;102108.75;10503846;28;20049;-59
2021/09/28 11:28:51;;;;;;;6.75;2.15;;;;;;;22.24;54.50;102111.84;10503081;28;20044;-60
2021/09/28 11:33:53;;;;;;;7.47;2.08;;;;;;;23.82;51.46;102104.91;10504030;28;20059;-60
2021/09/28 11:38:55;;;;;;;9.55;2.78;;;;;;;23.09;47.05;102101.78;10502727;28;20040;-59
2021/09/28 11:43:59;;;;;;;10.48;2.17;;;;;;;22.79;49.05;102099.00;10502685;28;20413;-60
2021/09/28 11:49:08;;;;;;;6.82;1.80;;;;;;;23.76;52.80;102089.38;10502364;28;20517;-60
2021/09/28 11:54:13;;;;;;;5.88;1.70;;;;;;;24.07;47.87;102084.72;10501605;28;20508;-60
2021/09/28 11:59:17;;;;;;;10.15;2.20;;;;;;;21.83;47.01;102078.91;10502006;28;20052;-60
2021/09/28 12:09:34;;;;;;;6.10;1.60;;;;;;;25.06;48.90;102075.16;10500815;28;20044;-60
